Time;durP1;ratioP1;P1;durP2;ratioP2;P2;SDS_P1;SDS_P2;PMS_P1;PMS_P2;Temp;Humidity;BMP_temperature;BMP_pressure;BME280_temperature;BME280_humidity;BME280_pressure;Samples;Min_cycle;Max_cycle;Signal;HPM_P1;HPM_P2
2022/08/21 07:52:07;;;;;;;;;12.00;10.67;;;;;;;;5162726;27;1394325;-81
2022/08/21 07:54:32;;;;;;;;;11.00;9.00;;;;;;;;5199440;27;22932;-74
2022/08/21 07:56:58;;;;;;;;;13.67;11.00;;;;;;;;5198894;27;22086;-82
2022/08/21 07:59:24;;;;;;;;;12.00;10.67;;;;;;;;5199886;27;21521;-85
2022/08/21 08:01:49;;;;;;;;;11.67;11.33;;;;;;;;5199817;27;12080;-81
2022/08/21 08:04:15;;;;;;;;;10.00;10.00;;;;;;;;5200012;27;11337;-84
2022/08/21 08:06:40;;;;;;;;;12.00;10.67;;;;;;;;5180866;27;13656;-84
2022/08/21 08:09:06;;;;;;;;;11.00;10.00;;;;;;;;5199377;27;11505;-83
2022/08/21 08:11:31;;;;;;;;;14.33;10.33;;;;;;;;5199639;27;11351;-82
2022/08/21 08:13:57;;;;;;;;;13.00;12.00;;;;;;;;5179708;27;13495;-83
2022/08/21 08:16:23;;;;;;;;;10.25;9.25;;;;;;;;5198306;27;12329;-83
2022/08/21 08:18:48;;;;;;;;;11.33;10.33;;;;;;;;5179031;27;22654;-85
2022/08/21 08:21:14;;;;;;;;;10.33;9.00;;;;;;;;5179337;27;23545;-88
2022/08/21 08:23:39;;;;;;;;;16.33;14.33;;;;;;;;5178704;27;23895;-90
2022/08/21 08:26:05;;;;;;;;;20.67;18.33;;;;;;;;5199201;27;22137;-91
2022/08/21 08:28:31;;;;;;;;;15.33;14.33;;;;;;;;5200052;27;13436;-91
2022/08/21 08:30:57;;;;;;;;;9.00;9.00;;;;;;;;5180246;27;14150;-85
2022/08/21 08:33:22;;;;;;;;;12.00;10.00;;;;;;;;5178109;27;25707;-87
2022/08/21 08:35:49;;;;;;;;;13.67;11.67;;;;;;;;5191672;27;22243;-84
2022/08/21 08:38:18;;;;;;;;;9.25;9.25;;;;;;;;5163397;27;11659;-85
2022/08/21 08:40:47;;;;;;;;;13.00;11.00;;;;;;;;5159555;27;24862;-89
2022/08/21 08:43:16;;;;;;;;;47.75;38.25;;;;;;;;5182270;27;23471;-89
2022/08/21 08:45:43;;;;;;;;;17.50;15.75;;;;;;;;5179559;27;13352;-84
2022/08/21 08:48:13;;;;;;;;;9.50;7.75;;;;;;;;5199440;27;12693;-90
2022/08/21 08:51:00;;;;;;;;;10.00;10.00;;;;;;;;5179452;27;22772;-87
2022/08/21 08:53:57;;;;;;;;;9.25;9.00;;;;;;;;5197806;27;23666;-85
2022/08/21 08:56:27;;;;;;;;;7.00;7.00;;;;;;;;5118842;27;23676;-85
2022/08/21 08:58:55;;;;;;;;;15.25;14.00;;;;;;;;5177974;27;10494;-83
2022/08/21 09:01:21;;;;;;;;;9.60;8.00;;;;;;;;5196153;27;22959;-86
2022/08/21 09:03:49;;;;;;;;;7.75;6.00;;;;;;;;5161595;27;25471;-83
2022/08/21 09:06:33;;;;;;;;;7.80;7.00;;;;;;;;5184201;27;10338;-81
2022/08/21 09:09:08;;;;;;;;;7.00;7.00;;;;;;;;5184284;27;8722;-94
2022/08/21 09:11:45;;;;;;;;;10.20;8.80;;;;;;;;5165050;27;8785;-81
2022/08/21 09:14:23;;;;;;;;;10.20;9.00;;;;;;;;5182998;27;21992;-86
2022/08/21 09:16:52;;;;;;;;;10.60;7.40;;;;;;;;5181136;27;9580;-84
2022/08/21 09:19:32;;;;;;;;;13.20;12.60;;;;;;;;5183374;27;11180;-82
2022/08/21 09:22:04;;;;;;;;;9.00;9.00;;;;;;;;5183153;27;21751;-86
2022/08/21 09:24:38;;;;;;;;;8.60;8.40;;;;;;;;5164032;27;24116;-86
2022/08/21 09:27:07;;;;;;;;;8.80;8.80;;;;;;;;5182097;27;11731;-79
2022/08/21 09:29:34;;;;;;;;;12.80;11.20;;;;;;;;5184553;27;8928;-78
2022/08/21 09:32:00;;;;;;;;;9.40;8.60;;;;;;;;5182430;27;22930;-81
2022/08/21 09:34:31;;;;;;;;;12.25;10.00;;;;;;;;5175560;27;22705;-79
2022/08/21 09:36:56;;;;;;;;;45.75;36.75;;;;;;;;5175501;27;22344;-82
2022/08/21 09:39:27;;;;;;;;;13.75;12.00;;;;;;;;5182392;27;13234;-85
2022/08/21 09:41:58;;;;;;;;;7.80;7.80;;;;;;;;5184259;27;14523;-90
2022/08/21 09:44:28;;;;;;;;;12.80;11.80;;;;;;;;5181184;27;22857;-84
2022/08/21 09:46:53;;;;;;;;;7.40;7.00;;;;;;;;5182821;27;22274;-82
2022/08/21 09:49:30;;;;;;;;;7.50;7.50;;;;;;;;5162470;27;25443;-83
2022/08/21 09:51:56;;;;;;;;;8.80;7.80;;;;;;;;5180919;27;8816;-81
2022/08/21 09:54:25;;;;;;;;;33.40;23.60;;;;;;;;5159016;27;11367;-72
2022/08/21 09:59:37;;;;;;;;;13.60;13.60;;;;;;;;5179709;27;13558;-71
2022/08/21 10:02:21;;;;;;;;;9.50;8.75;;;;;;;;5181214;27;11867;-72
2022/08/21 10:04:51;;;;;;;;;14.80;13.40;;;;;;;;5182284;27;23459;-71
2022/08/21 10:07:19;;;;;;;;;8.00;8.00;;;;;;;;5180622;27;23550;-74
2022/08/21 10:09:44;;;;;;;;;11.80;11.80;;;;;;;;5180788;27;22261;-72
2022/08/21 10:12:09;;;;;;;;;13.25;12.00;;;;;;;;5172541;27;23448;-72
2022/08/21 10:14:51;;;;;;;;;6.75;6.75;;;;;;;;5177637;27;11429;-72
2022/08/21 10:17:37;;;;;;;;;8.40;8.40;;;;;;;;5174866;27;23391;-71
2022/08/21 10:20:10;;;;;;;;;6.60;6.60;;;;;;;;5177618;27;13647;-71
2022/08/21 10:22:47;;;;;;;;;12.40;10.20;;;;;;;;5157445;27;13916;-71
2022/08/21 10:25:26;;;;;;;;;11.00;9.60;;;;;;;;5179918;27;22673;-71
2022/08/21 10:28:10;;;;;;;;;9.20;9.00;;;;;;;;5177150;27;22793;-70
2022/08/21 10:30:38;;;;;;;;;10.75;9.25;;;;;;;;5180321;27;21929;-71
2022/08/21 10:33:12;;;;;;;;;11.60;9.00;;;;;;;;5180507;27;22045;-70
2022/08/21 10:35:46;;;;;;;;;6.20;6.00;;;;;;;;5178671;27;10385;-71
2022/08/21 10:38:14;;;;;;;;;9.25;8.25;;;;;;;;5179820;27;21459;-70
2022/08/21 10:40:55;;;;;;;;;11.25;10.25;;;;;;;;5180697;27;12106;-71
2022/08/21 10:43:33;;;;;;;;;9.00;8.00;;;;;;;;5176881;27;22668;-73
2022/08/21 10:46:14;;;;;;;;;11.50;9.00;;;;;;;;5173708;27;23504;-74
2022/08/21 10:48:59;;;;;;;;;9.75;9.75;;;;;;;;5142001;27;21913;-75
2022/08/21 10:51:41;;;;;;;;;6.00;5.50;;;;;;;;5057618;28;22301;-75
2022/08/21 10:54:07;;;;;;;;;11.50;8.75;;;;;;;;5075995;28;11389;-75
2022/08/21 10:56:35;;;;;;;;;10.00;10.00;;;;;;;;5075627;28;21468;-75
2022/08/21 10:59:09;;;;;;;;;9.75;9.75;;;;;;;;5076109;28;21667;-74
2022/08/21 11:01:57;;;;;;;;;10.50;10.50;;;;;;;;5078771;27;22672;-74
2022/08/21 11:04:30;;;;;;;;;9.75;8.75;;;;;;;;5180912;27;22494;-74
2022/08/21 11:07:04;;;;;;;;;8.00;8.00;;;;;;;;5181438;27;22194;-75
2022/08/21 11:09:30;;;;;;;;;10.75;9.75;;;;;;;;5181225;27;11833;-75
2022/08/21 11:11:55;;;;;;;;;8.33;8.33;;;;;;;;5181259;27;21584;-74
2022/08/21 11:14:32;;;;;;;;;6.67;6.67;;;;;;;;5181000;27;21368;-74
2022/08/21 11:17:08;;;;;;;;;3.25;2.00;;;;;;;;5162857;27;11697;-75
2022/08/21 11:19:40;;;;;;;;;2.75;2.75;;;;;;;;5181624;27;11662;-74
2022/08/21 11:22:11;;;;;;;;;4.75;4.75;;;;;;;;5181242;27;11671;-74
2022/08/21 11:24:55;;;;;;;;;3.25;2.00;;;;;;;;5180860;27;8995;-74
2022/08/21 11:27:20;;;;;;;;;6.00;5.50;;;;;;;;5181318;27;11567;-74
2022/08/21 11:29:48;;;;;;;;;5.00;5.00;;;;;;;;5181297;27;12046;-74
2022/08/21 11:32:35;;;;;;;;;6.50;6.00;;;;;;;;5181426;27;11376;-74
2022/08/21 11:35:00;;;;;;;;;4.00;4.00;;;;;;;;5180844;27;10394;-74
2022/08/21 11:37:55;;;;;;;;;3.00;3.00;;;;;;;;5181081;27;10266;-73
2022/08/21 11:40:23;;;;;;;;;4.25;4.25;;;;;;;;5137536;27;9335;-81
2022/08/21 11:42:53;;;;;;;;;4.75;3.75;;;;;;;;5177854;27;11736;-78
2022/08/21 11:45:34;;;;;;;;;4.00;3.25;;;;;;;;5162584;27;11929;-82
2022/08/21 11:48:02;;;;;;;;;4.75;4.75;;;;;;;;5181579;27;8863;-82
2022/08/21 11:50:29;;;;;;;;;4.00;4.00;;;;;;;;5180619;27;9900;-85
2022/08/21 11:52:58;;;;;;;;;3.75;3.50;;;;;;;;5179970;27;9606;-86
2022/08/21 11:55:29;;;;;;;;;8.25;5.50;;;;;;;;5161733;27;14398;-86
2022/08/21 11:57:57;;;;;;;;;0.75;0.75;;;;;;;;5162292;27;12450;-82
2022/08/21 12:00:22;;;;;;;;;2.00;2.00;;;;;;;;5181084;27;11529;-80
2022/08/21 12:02:50;;;;;;;;;0.00;0.00;;;;;;;;5159966;27;11646;-79
2022/08/21 12:05:27;;;;;;;;;1.25;0.00;;;;;;;;5181753;27;9030;-80
2022/08/21 12:08:19;;;;;;;;;3.00;2.00;;;;;;;;5180683;27;9332;-81
2022/08/21 12:10:59;;;;;;;;;3.25;3.00;;;;;;;;5140809;27;10376;-78
2022/08/21 12:13:27;;;;;;;;;3.50;3.50;;;;;;;;5180426;27;11031;-77
2022/08/21 12:16:04;;;;;;;;;3.00;2.00;;;;;;;;5181046;27;9067;-79
2022/08/21 12:18:32;;;;;;;;;3.33;2.00;;;;;;;;5181559;27;10376;-78
2022/08/21 12:21:00;;;;;;;;;3.00;3.00;;;;;;;;5181228;27;8798;-84
2022/08/21 12:23:27;;;;;;;;;5.50;4.25;;;;;;;;5181451;27;9530;-86
2022/08/21 12:26:02;;;;;;;;;5.25;4.00;;;;;;;;5181205;27;11406;-84
2022/08/21 12:28:28;;;;;;;;;3.00;3.00;;;;;;;;5154086;27;10750;-80
2022/08/21 12:30:53;;;;;;;;;4.00;4.00;;;;;;;;5161706;27;10768;-80
2022/08/21 12:33:25;;;;;;;;;3.00;3.00;;;;;;;;5161916;27;11820;-80
2022/08/21 12:35:52;;;;;;;;;3.25;3.25;;;;;;;;5180941;27;9368;-78
2022/08/21 12:38:23;;;;;;;;;4.00;3.75;;;;;;;;5184164;27;8771;-82
2022/08/21 12:41:05;;;;;;;;;5.00;5.00;;;;;;;;5184844;27;10603;-82
2022/08/21 12:43:36;;;;;;;;;3.00;3.00;;;;;;;;5184157;27;11568;-78
2022/08/21 12:46:04;;;;;;;;;5.25;4.25;;;;;;;;5184784;27;9240;-76
2022/08/21 12:48:29;;;;;;;;;3.75;3.00;;;;;;;;5184573;27;11695;-78
2022/08/21 12:50:56;;;;;;;;;4.33;3.67;;;;;;;;5184051;27;11799;-83
2022/08/21 12:53:30;;;;;;;;;3.00;3.00;;;;;;;;5184936;27;11661;-83
2022/08/21 12:56:01;;;;;;;;;4.75;4.00;;;;;;;;5180500;27;11836;-76
2022/08/21 12:58:27;;;;;;;;;4.00;4.00;;;;;;;;5183972;27;10637;-81
2022/08/21 13:01:01;;;;;;;;;5.00;5.00;;;;;;;;5184957;27;8877;-79
2022/08/21 13:03:27;;;;;;;;;4.00;4.00;;;;;;;;5184160;27;8947;-79
2022/08/21 13:05:54;;;;;;;;;3.25;3.00;;;;;;;;5184575;27;9723;-80
2022/08/21 13:08:20;;;;;;;;;4.00;4.00;;;;;;;;5184004;27;10556;-79
2022/08/21 13:10:47;;;;;;;;;5.00;5.00;;;;;;;;5183504;27;10435;-81
2022/08/21 13:13:19;;;;;;;;;5.50;3.00;;;;;;;;5184908;27;8811;-79
2022/08/21 13:15:45;;;;;;;;;5.00;5.00;;;;;;;;5183593;27;9801;-76
2022/08/21 13:18:19;;;;;;;;;5.67;4.67;;;;;;;;5183429;27;9495;-76
2022/08/21 13:20:44;;;;;;;;;5.00;5.00;;;;;;;;5183621;27;10624;-77
2022/08/21 13:23:22;;;;;;;;;6.00;5.00;;;;;;;;5183224;27;10529;-76
2022/08/21 13:25:48;;;;;;;;;5.50;5.00;;;;;;;;5183410;27;8789;-76
2022/08/21 13:28:14;;;;;;;;;4.33;4.33;;;;;;;;5182880;27;9311;-75
2022/08/21 13:30:44;;;;;;;;;6.25;6.25;;;;;;;;5183080;27;11916;-76
2022/08/21 13:33:11;;;;;;;;;7.75;5.00;;;;;;;;5183320;27;8791;-76
2022/08/21 13:35:47;;;;;;;;;6.25;6.25;;;;;;;;5183085;27;11935;-76
2022/08/21 13:38:12;;;;;;;;;4.50;4.50;;;;;;;;5182358;27;11461;-75
2022/08/21 13:40:42;;;;;;;;;7.00;7.00;;;;;;;;5182405;27;11483;-76
2022/08/21 13:43:12;;;;;;;;;5.50;5.00;;;;;;;;5180057;27;11816;-76
2022/08/21 13:45:38;;;;;;;;;6.00;5.00;;;;;;;;5183969;27;10334;-76
2022/08/21 13:48:04;;;;;;;;;5.00;4.00;;;;;;;;5183250;27;9010;-76
2022/08/21 13:50:30;;;;;;;;;6.50;5.00;;;;;;;;5183294;27;8777;-77
2022/08/21 13:52:57;;;;;;;;;5.33;4.00;;;;;;;;5183170;27;10729;-77
2022/08/21 13:55:23;;;;;;;;;5.75;5.75;;;;;;;;5182599;27;10434;-76
2022/08/21 13:57:58;;;;;;;;;7.00;7.00;;;;;;;;5182624;27;10278;-76
2022/08/21 14:00:28;;;;;;;;;6.00;6.00;;;;;;;;5183525;27;11384;-76
2022/08/21 14:02:59;;;;;;;;;7.25;5.00;;;;;;;;5182860;27;8790;-76
2022/08/21 14:05:28;;;;;;;;;4.50;4.50;;;;;;;;5182986;27;10357;-76
2022/08/21 14:08:14;;;;;;;;;6.50;6.50;;;;;;;;5181821;27;11556;-76
2022/08/21 14:10:47;;;;;;;;;5.00;5.00;;;;;;;;5183332;27;8868;-76
2022/08/21 14:13:39;;;;;;;;;5.00;5.00;;;;;;;;5183189;27;11900;-77
2022/08/21 14:16:16;;;;;;;;;8.00;7.00;;;;;;;;5178445;27;8800;-76
2022/08/21 14:18:45;;;;;;;;;5.25;5.25;;;;;;;;5183130;27;8758;-77
2022/08/21 14:21:13;;;;;;;;;5.25;5.00;;;;;;;;5182644;27;11401;-76
2022/08/21 14:23:38;;;;;;;;;5.50;4.75;;;;;;;;5176468;27;8794;-74
2022/08/21 14:26:05;;;;;;;;;5.00;4.00;;;;;;;;5179775;27;10443;-78
2022/08/21 14:28:37;;;;;;;;;5.00;5.00;;;;;;;;5181158;27;8794;-82
2022/08/21 14:31:17;;;;;;;;;45.00;34.00;;;;;;;;5181178;27;8801;-78
2022/08/21 14:33:42;;;;;;;;;11.00;10.00;;;;;;;;5182331;27;22865;-85
2022/08/21 14:36:08;;;;;;;;;6.67;5.00;;;;;;;;5183008;27;10612;-82
2022/08/21 14:38:35;;;;;;;;;7.00;7.00;;;;;;;;5163081;27;25177;-79
2022/08/21 14:41:07;;;;;;;;;9.50;7.00;;;;;;;;5163397;27;12403;-81
2022/08/21 14:43:33;;;;;;;;;6.00;5.00;;;;;;;;5164232;27;9201;-84
2022/08/21 14:46:00;;;;;;;;;7.00;5.00;;;;;;;;5163607;27;11960;-89
2022/08/21 14:48:26;;;;;;;;;5.25;5.25;;;;;;;;5181916;27;9724;-89
2022/08/21 14:50:52;;;;;;;;;6.50;6.00;;;;;;;;5162996;27;13997;-89
2022/08/21 14:53:17;;;;;;;;;6.33;5.33;;;;;;;;5163308;27;11746;-88
2022/08/21 14:58:26;;;;;;;;;5.00;5.00;;;;;;;;5181823;27;11607;-87
2022/08/21 15:00:52;;;;;;;;;6.67;6.00;;;;;;;;5181459;27;11048;-86
2022/08/21 15:03:18;;;;;;;;;7.00;6.00;;;;;;;;5181440;27;10261;-87
2022/08/21 15:05:44;;;;;;;;;5.75;4.25;;;;;;;;5175327;27;9430;-87
2022/08/21 15:08:09;;;;;;;;;5.00;5.00;;;;;;;;5181318;27;11531;-87
2022/08/21 15:10:35;;;;;;;;;7.33;5.33;;;;;;;;5178558;27;10299;-86
2022/08/21 15:13:01;;;;;;;;;6.00;5.00;;;;;;;;5182359;27;12737;-90
2022/08/21 15:15:26;;;;;;;;;5.00;5.00;;;;;;;;5181207;27;11296;-90
2022/08/21 15:17:51;;;;;;;;;3.67;3.67;;;;;;;;5181775;27;8909;-90
2022/08/21 15:20:17;;;;;;;;;6.00;3.67;;;;;;;;5181282;27;12677;-90
2022/08/21 15:22:42;;;;;;;;;4.33;4.33;;;;;;;;5182986;27;8882;-90
2022/08/21 15:25:07;;;;;;;;;4.33;4.00;;;;;;;;5163025;27;11819;-89
2022/08/21 15:27:34;;;;;;;;;4.00;4.00;;;;;;;;5163274;27;8808;-88
2022/08/21 15:29:59;;;;;;;;;3.00;3.00;;;;;;;;5162840;27;8809;-89
2022/08/21 15:32:27;;;;;;;;;4.00;4.00;;;;;;;;5182206;27;9082;-88
2022/08/21 15:34:52;;;;;;;;;5.25;3.50;;;;;;;;5183463;27;8957;-90
2022/08/21 15:37:19;;;;;;;;;4.00;4.00;;;;;;;;5182550;27;11498;-96
2022/08/21 15:39:44;;;;;;;;;4.00;4.00;;;;;;;;5185532;27;12046;-93
